createdAt,value
2017-10-15T00:01:50.434Z,27.57
2017-10-15T00:04:18.789Z,25.27
2017-10-15T00:06:47.202Z,20.30
2017-10-15T00:09:15.544Z,27.13
2017-10-15T00:11:43.994Z,30.27
2017-10-15T00:14:12.425Z,19.90
2017-10-15T00:16:40.789Z,18.40
2017-10-15T00:19:09.226Z,26.67
2017-10-15T00:21:37.604Z,24.10
2017-10-15T00:24:06.005Z,18.27
2017-10-15T00:26:34.536Z,22.77
2017-10-15T00:29:02.987Z,22.50
2017-10-15T00:31:31.346Z,25.00
2017-10-15T00:33:59.945Z,20.73
2017-10-15T00:36:28.363Z,29.03
2017-10-15T00:38:56.752Z,27.40
2017-10-15T00:41:25.277Z,19.23
2017-10-15T00:43:53.600Z,33.43
2017-10-15T00:46:21.998Z,21.07
2017-10-15T00:48:50.349Z,22.77
2017-10-15T00:51:18.738Z,17.83
2017-10-15T00:53:47.270Z,21.30
2017-10-15T00:56:15.667Z,27.93
2017-10-15T00:58:44.094Z,28.23
2017-10-15T01:01:12.654Z,29.97
2017-10-15T01:03:41.110Z,22.87
2017-10-15T01:06:09.523Z,40.10
2017-10-15T01:08:37.948Z,18.53
2017-10-15T01:11:06.286Z,16.17
2017-10-15T01:13:34.662Z,16.63
2017-10-15T01:16:03.014Z,18.40
2017-10-15T01:18:31.460Z,14.33
2017-10-15T01:20:59.923Z,25.03
2017-10-15T01:23:28.371Z,17.33
2017-10-15T01:25:56.810Z,19.90
2017-10-15T01:28:25.203Z,19.90
2017-10-15T01:30:53.521Z,21.17
2017-10-15T01:33:22.002Z,17.93
2017-10-15T01:35:50.337Z,18.30
2017-10-15T01:38:18.697Z,22.97
2017-10-15T01:40:47.246Z,30.30
2017-10-15T01:43:15.605Z,24.70
2017-10-15T01:45:44.028Z,19.27
2017-10-15T01:48:12.463Z,21.90
2017-10-15T01:50:40.804Z,16.57
2017-10-15T01:53:09.178Z,18.10
2017-10-15T01:55:37.541Z,26.07
2017-10-15T01:58:05.884Z,29.17
2017-10-15T02:00:34.284Z,21.57
2017-10-15T02:03:02.667Z,31.00
2017-10-15T02:05:30.990Z,23.60
2017-10-15T02:07:59.383Z,21.77
2017-10-15T02:10:28.588Z,20.80
2017-10-15T02:12:56.944Z,26.67
2017-10-15T02:15:25.326Z,22.87
2017-10-15T02:17:53.738Z,19.90
2017-10-15T02:20:22.126Z,17.60
2017-10-15T02:22:50.638Z,23.30
2017-10-15T02:25:18.995Z,28.67
2017-10-15T02:27:47.350Z,25.70
2017-10-15T02:30:15.726Z,20.30
2017-10-15T02:32:44.066Z,21.37
2017-10-15T02:35:12.457Z,17.70
2017-10-15T02:37:40.806Z,25.03
2017-10-15T02:40:09.129Z,20.93
2017-10-15T02:42:37.518Z,16.93
2017-10-15T02:45:05.885Z,19.20
2017-10-15T02:47:34.246Z,17.50
2017-10-15T02:50:02.626Z,23.50
2017-10-15T02:52:31.055Z,21.90
2017-10-15T02:54:59.891Z,21.23
2017-10-15T02:57:28.275Z,27.93
2017-10-15T02:59:56.663Z,22.93
2017-10-15T03:02:25.061Z,20.23
2017-10-15T03:04:53.446Z,18.40
2017-10-15T03:07:21.802Z,27.07
2017-10-15T03:09:50.181Z,22.57
2017-10-15T03:12:18.545Z,23.57
2017-10-15T03:14:46.868Z,23.00
2017-10-15T03:17:15.207Z,24.73
2017-10-15T03:19:43.587Z,29.17
2017-10-15T03:22:11.947Z,22.60
2017-10-15T03:24:40.358Z,19.40
2017-10-15T03:27:08.705Z,20.77
2017-10-15T03:29:37.092Z,15.70
2017-10-15T03:32:05.478Z,16.70
2017-10-15T03:34:33.863Z,14.53
2017-10-15T03:37:02.225Z,16.40
2017-10-15T03:39:30.581Z,18.03
2017-10-15T03:41:58.994Z,19.50
2017-10-15T03:44:27.409Z,24.37
2017-10-15T03:46:55.870Z,12.63
2017-10-15T03:49:24.216Z,11.83
2017-10-15T03:51:52.533Z,15.07
2017-10-15T03:54:20.915Z,22.07
2017-10-15T03:56:49.293Z,15.40
2017-10-15T03:59:17.606Z,14.70
2017-10-15T04:04:20.500Z,14.87
2017-10-15T04:06:48.869Z,19.93
2017-10-15T04:09:17.197Z,20.00
2017-10-15T04:11:45.574Z,15.40
2017-10-15T04:14:13.920Z,15.27
2017-10-15T04:16:42.264Z,12.87
2017-10-15T04:19:10.599Z,9.37
2017-10-15T04:21:38.970Z,11.73
2017-10-15T04:24:07.341Z,12.23
2017-10-15T04:26:35.983Z,11.63
2017-10-15T04:29:04.389Z,10.73
2017-10-15T04:31:32.754Z,7.87
2017-10-15T04:34:01.145Z,8.83
2017-10-15T04:36:29.545Z,9.73
2017-10-15T04:38:57.973Z,11.07
2017-10-15T04:41:26.804Z,9.70
2017-10-15T04:43:55.101Z,9.40
2017-10-15T04:46:23.422Z,10.33
2017-10-15T04:48:51.756Z,13.10
2017-10-15T04:51:26.038Z,10.60
2017-10-15T04:53:54.424Z,8.33
2017-10-15T04:56:22.737Z,13.13
2017-10-15T04:58:51.140Z,15.00
2017-10-15T05:01:19.475Z,11.27
2017-10-15T05:03:47.793Z,10.50
2017-10-15T05:06:16.137Z,9.87
2017-10-15T05:08:44.494Z,21.33
2017-10-15T05:11:12.860Z,8.30
2017-10-15T05:13:41.181Z,10.33
2017-10-15T05:16:09.509Z,14.27
2017-10-15T05:18:37.842Z,13.40
2017-10-15T05:21:06.253Z,12.03
2017-10-15T05:23:34.569Z,9.30
2017-10-15T05:26:02.926Z,10.80
2017-10-15T05:28:31.369Z,8.60
2017-10-15T05:30:59.705Z,13.80
2017-10-15T05:33:28.155Z,10.20
2017-10-15T05:35:56.491Z,9.30
2017-10-15T05:38:24.874Z,8.70
2017-10-15T05:40:53.249Z,11.87
2017-10-15T05:43:21.604Z,17.93
2017-10-15T05:45:49.955Z,42.03
2017-10-15T05:48:18.324Z,12.67
2017-10-15T05:50:46.680Z,11.67
2017-10-15T05:53:15.090Z,10.07
2017-10-15T05:55:43.474Z,6.80
2017-10-15T05:58:11.821Z,12.93
2017-10-15T06:00:40.230Z,6.70
2017-10-15T06:03:08.574Z,7.77
2017-10-15T06:05:36.954Z,7.30
2017-10-15T06:08:05.283Z,6.97
2017-10-15T06:10:33.625Z,6.17
2017-10-15T06:13:02.066Z,9.20
2017-10-15T06:15:30.485Z,7.30
2017-10-15T06:17:58.871Z,10.80
2017-10-15T06:20:27.249Z,8.97
2017-10-15T06:22:55.601Z,10.13
2017-10-15T06:25:23.950Z,10.23
2017-10-15T06:27:52.439Z,11.57
2017-10-15T06:30:20.902Z,7.70
2017-10-15T06:32:49.486Z,8.00
2017-10-15T06:35:17.829Z,5.40
2017-10-15T06:37:46.273Z,8.30
2017-10-15T06:40:14.749Z,6.37
2017-10-15T06:42:43.191Z,13.33
2017-10-15T06:45:11.534Z,7.07
2017-10-15T06:47:40.202Z,8.90
2017-10-15T06:50:08.695Z,10.70
2017-10-15T06:52:37.154Z,8.27
2017-10-15T06:55:09.229Z,6.30
2017-10-15T06:57:37.684Z,6.23
2017-10-15T07:00:06.089Z,10.00
2017-10-15T07:02:34.523Z,4.80
2017-10-15T07:05:02.890Z,11.60
2017-10-15T07:07:31.262Z,5.10
2017-10-15T07:09:59.769Z,8.43
2017-10-15T07:12:28.142Z,10.13
2017-10-15T07:14:56.521Z,6.80
2017-10-15T07:17:24.826Z,5.30
2017-10-15T07:19:53.208Z,13.87
2017-10-15T07:22:21.570Z,4.87
2017-10-15T07:24:49.896Z,5.70
2017-10-15T07:27:18.273Z,5.30
2017-10-15T07:29:46.617Z,5.60
2017-10-15T07:32:15.037Z,4.43
2017-10-15T07:34:43.421Z,7.73
2017-10-15T07:37:11.836Z,14.00
2017-10-15T07:39:40.445Z,8.57
2017-10-15T07:42:08.970Z,6.73
2017-10-15T07:44:37.387Z,8.23
2017-10-15T07:47:05.967Z,7.40
2017-10-15T07:49:34.350Z,11.60
2017-10-15T07:52:03.851Z,6.93
2017-10-15T07:54:32.344Z,21.03
2017-10-15T07:57:00.851Z,6.10
2017-10-15T07:59:29.298Z,6.60
2017-10-15T08:01:57.759Z,8.40
2017-10-15T08:04:27.188Z,6.30
2017-10-15T08:06:55.574Z,6.97
2017-10-15T08:09:23.935Z,9.30
2017-10-15T08:11:52.347Z,5.57
2017-10-15T08:14:21.009Z,5.97
2017-10-15T08:16:49.477Z,13.63
2017-10-15T08:19:17.934Z,8.30
2017-10-15T08:21:46.314Z,11.40
2017-10-15T08:24:14.750Z,7.13
2017-10-15T08:26:43.200Z,7.93
2017-10-15T08:29:11.623Z,8.63
2017-10-15T08:31:40.030Z,9.13
2017-10-15T08:34:08.438Z,8.17
2017-10-15T08:36:36.890Z,5.73
2017-10-15T08:39:06.255Z,6.03
2017-10-15T08:41:34.723Z,7.97
2017-10-15T08:44:03.150Z,8.87
2017-10-15T08:46:31.615Z,7.03
2017-10-15T08:49:00.372Z,12.83
2017-10-15T08:51:28.839Z,6.90
2017-10-15T08:53:59.155Z,7.37
2017-10-15T08:56:27.539Z,11.30
2017-10-15T08:58:57.664Z,7.77
2017-10-15T09:01:32.916Z,10.77
2017-10-15T09:04:02.600Z,9.67
2017-10-15T09:06:31.907Z,4.27
2017-10-15T09:09:01.142Z,7.60
2017-10-15T09:11:30.103Z,5.53
2017-10-15T09:13:59.815Z,12.30
2017-10-15T09:16:29.528Z,4.93
2017-10-15T09:19:07.564Z,6.07
2017-10-15T09:21:35.894Z,7.00
2017-10-15T09:24:04.280Z,9.00
2017-10-15T09:26:32.640Z,5.33
2017-10-15T09:29:01.029Z,5.80
2017-10-15T09:31:29.426Z,5.50
2017-10-15T09:33:58.129Z,5.77
2017-10-15T09:41:36.413Z,4.90
2017-10-15T09:44:04.893Z,7.50
2017-10-15T09:46:33.691Z,7.03
2017-10-15T09:49:03.111Z,3.83
2017-10-15T09:51:31.723Z,7.73
2017-10-15T09:54:00.439Z,7.70
2017-10-15T09:56:28.947Z,5.67
2017-10-15T09:58:57.631Z,4.53
2017-10-15T10:01:26.379Z,7.57
2017-10-15T10:03:54.853Z,8.07
2017-10-15T10:06:23.266Z,9.77
2017-10-15T10:08:51.609Z,6.57
2017-10-15T10:11:19.989Z,4.90
2017-10-15T10:13:48.418Z,4.70
2017-10-15T10:16:16.789Z,15.00
2017-10-15T10:18:45.150Z,6.70
2017-10-15T10:21:17.468Z,3.57
2017-10-15T10:23:45.943Z,5.07
2017-10-15T10:26:14.275Z,3.10
2017-10-15T10:28:42.671Z,4.30
2017-10-15T10:31:11.051Z,4.13
2017-10-15T10:33:39.397Z,5.33
2017-10-15T10:36:07.751Z,4.77
2017-10-15T10:38:36.123Z,3.50
2017-10-15T10:41:04.741Z,6.63
2017-10-15T10:43:33.217Z,3.30
2017-10-15T10:46:02.611Z,4.87
2017-10-15T10:48:31.169Z,4.80
2017-10-15T10:50:59.726Z,4.93
2017-10-15T10:53:28.492Z,5.00
2017-10-15T10:55:57.042Z,7.33
2017-10-15T10:58:25.442Z,6.60
2017-10-15T11:00:53.840Z,6.30
2017-10-15T11:03:22.232Z,5.80
2017-10-15T11:05:50.622Z,4.40
2017-10-15T11:08:19.254Z,4.70
2017-10-15T11:10:47.584Z,5.17
2017-10-15T11:13:15.902Z,6.57
2017-10-15T11:15:44.242Z,4.07
2017-10-15T11:18:12.595Z,5.30
2017-10-15T11:20:44.832Z,5.10
2017-10-15T11:23:13.252Z,5.77
2017-10-15T11:25:41.591Z,9.43
2017-10-15T11:28:09.910Z,5.70
2017-10-15T11:30:39.197Z,4.20
2017-10-15T11:33:07.637Z,4.90
2017-10-15T11:35:36.064Z,4.23
2017-10-15T11:38:04.521Z,4.20
2017-10-15T11:40:32.878Z,6.83
2017-10-15T11:43:01.353Z,3.90
2017-10-15T11:45:29.846Z,4.07
2017-10-15T11:47:58.361Z,8.27
2017-10-15T11:50:26.793Z,11.67
2017-10-15T11:52:55.244Z,8.77
2017-10-15T11:55:23.582Z,5.93
2017-10-15T11:57:51.901Z,7.10
2017-10-15T12:00:20.243Z,7.87
2017-10-15T12:02:48.581Z,4.10
2017-10-15T12:05:16.888Z,7.67
2017-10-15T12:07:45.365Z,4.10
2017-10-15T12:10:13.725Z,7.60
2017-10-15T12:12:42.151Z,5.13
2017-10-15T12:15:10.473Z,5.30
2017-10-15T12:17:38.816Z,8.93
2017-10-15T12:20:07.149Z,6.47
2017-10-15T12:22:35.504Z,28.60
2017-10-15T12:25:03.853Z,4.43
2017-10-15T12:27:32.213Z,5.67
2017-10-15T12:30:00.571Z,4.50
2017-10-15T12:32:28.936Z,5.00
2017-10-15T12:34:57.270Z,5.27
2017-10-15T12:37:25.713Z,5.83
2017-10-15T12:39:54.057Z,5.33
2017-10-15T12:42:22.379Z,5.33
2017-10-15T12:44:50.744Z,8.27
2017-10-15T12:47:19.129Z,6.70
2017-10-15T12:49:47.617Z,7.73
2017-10-15T12:52:15.985Z,7.47
2017-10-15T12:54:45.369Z,4.97
2017-10-15T12:57:14.663Z,4.07
2017-10-15T12:59:43.050Z,4.87
2017-10-15T13:02:11.413Z,7.90
2017-10-15T13:04:39.760Z,6.50
2017-10-15T13:07:08.369Z,5.33
2017-10-15T13:09:36.723Z,8.33
2017-10-15T13:12:05.385Z,8.63
2017-10-15T13:14:33.837Z,4.90
2017-10-15T13:17:02.170Z,4.30
2017-10-15T13:19:30.619Z,4.87
2017-10-15T13:21:59.004Z,5.73
2017-10-15T13:24:27.397Z,7.23
2017-10-15T13:26:55.726Z,5.00
2017-10-15T13:29:25.157Z,8.10
2017-10-15T13:31:53.853Z,12.57
2017-10-15T13:34:22.190Z,4.73
2017-10-15T13:36:50.584Z,4.83
2017-10-15T13:39:18.930Z,5.00
2017-10-15T13:41:47.330Z,4.43
2017-10-15T13:44:15.706Z,5.60
2017-10-15T13:46:44.109Z,7.17
2017-10-15T13:49:12.541Z,6.73
2017-10-15T13:51:40.967Z,9.10
2017-10-15T13:54:09.357Z,8.27
2017-10-15T13:56:37.780Z,6.40
2017-10-15T13:59:06.225Z,4.70
2017-10-15T14:01:34.545Z,8.17
2017-10-15T14:04:02.952Z,14.87
2017-10-15T14:06:31.433Z,7.27
2017-10-15T14:08:59.770Z,3.80
2017-10-15T14:11:28.193Z,10.10
2017-10-15T14:13:56.535Z,9.70
2017-10-15T14:16:24.958Z,5.47
2017-10-15T14:18:53.549Z,18.23
2017-10-15T14:21:21.908Z,3.90
2017-10-15T14:23:50.279Z,12.33
2017-10-15T14:26:18.675Z,8.73
2017-10-15T14:28:47.059Z,5.50
2017-10-15T14:31:15.523Z,5.30
2017-10-15T14:33:43.845Z,7.13
2017-10-15T14:36:12.314Z,11.97
2017-10-15T14:38:40.698Z,12.63
2017-10-15T14:41:09.049Z,5.60
2017-10-15T14:43:37.528Z,9.33
2017-10-15T14:46:05.872Z,3.80
2017-10-15T14:48:34.262Z,4.93
2017-10-15T14:51:02.619Z,8.77
2017-10-15T14:53:31.128Z,8.27
2017-10-15T14:55:59.614Z,6.00
2017-10-15T14:58:28.061Z,6.40
2017-10-15T15:00:56.468Z,4.80
2017-10-15T15:03:24.878Z,11.83
2017-10-15T15:05:53.289Z,7.83
2017-10-15T15:08:21.671Z,4.87
2017-10-15T15:10:50.121Z,4.83
2017-10-15T15:13:18.472Z,6.43
2017-10-15T15:15:46.944Z,4.90
2017-10-15T15:18:15.429Z,5.50
2017-10-15T15:20:43.974Z,9.37
2017-10-15T15:23:12.561Z,8.90
2017-10-15T15:25:40.967Z,9.10
2017-10-15T15:28:09.417Z,20.40
2017-10-15T15:30:37.777Z,3.63
2017-10-15T15:33:06.315Z,9.40
2017-10-15T15:35:34.747Z,5.70
2017-10-15T15:38:04.112Z,8.77
2017-10-15T15:40:32.517Z,3.77
2017-10-15T15:43:00.952Z,5.57
2017-10-15T15:45:29.321Z,12.97
2017-10-15T15:47:58.663Z,8.17
2017-10-15T15:50:27.405Z,11.50
2017-10-15T15:52:55.774Z,4.53
2017-10-15T15:55:24.226Z,11.63
2017-10-15T15:57:52.685Z,6.93
2017-10-15T16:00:22.395Z,7.47
2017-10-15T16:02:50.946Z,5.80
2017-10-15T16:05:19.375Z,9.83
2017-10-15T16:07:47.873Z,5.07
2017-10-15T16:10:16.317Z,10.70
2017-10-15T16:12:44.636Z,9.53
2017-10-15T16:15:13.943Z,11.87
2017-10-15T16:17:42.273Z,10.60
2017-10-15T16:20:10.609Z,13.83
2017-10-15T16:22:39.037Z,10.17
2017-10-15T16:25:11.030Z,7.17
2017-10-15T16:27:39.764Z,13.33
2017-10-15T16:30:08.155Z,12.63
2017-10-15T16:32:36.779Z,10.27
2017-10-15T16:35:05.134Z,12.30
2017-10-15T16:37:33.603Z,18.07
2017-10-15T16:40:02.366Z,11.57
2017-10-15T16:42:30.866Z,11.17
2017-10-15T16:44:59.350Z,10.80
2017-10-15T16:47:27.788Z,13.30
2017-10-15T16:49:56.582Z,10.03
2017-10-15T16:52:25.012Z,8.93
2017-10-15T16:54:53.453Z,21.93
2017-10-15T16:57:21.813Z,8.03
2017-10-15T16:59:51.946Z,11.67
2017-10-15T17:02:20.393Z,13.13
2017-10-15T17:04:48.794Z,11.60
2017-10-15T17:07:17.288Z,14.43
2017-10-15T17:09:45.971Z,12.33
2017-10-15T17:12:14.656Z,13.80
2017-10-15T17:14:43.079Z,16.53
2017-10-15T17:17:11.515Z,10.30
2017-10-15T17:19:40.609Z,18.63
2017-10-15T17:22:09.012Z,9.40
2017-10-15T17:24:37.474Z,12.73
2017-10-15T17:27:05.984Z,13.00
2017-10-15T17:29:35.313Z,9.63
2017-10-15T17:32:03.838Z,22.30
2017-10-15T17:34:32.728Z,11.33
2017-10-15T17:39:37.019Z,14.20
2017-10-15T17:44:38.389Z,12.80
2017-10-15T17:47:06.816Z,15.47
2017-10-15T17:49:59.065Z,12.80
2017-10-15T17:52:27.609Z,17.63
2017-10-15T17:54:56.007Z,13.23
2017-10-15T17:57:24.407Z,16.30
2017-10-15T17:59:52.858Z,14.03
2017-10-15T18:02:30.617Z,13.67
2017-10-15T18:04:59.026Z,16.03
2017-10-15T18:07:27.506Z,11.73
2017-10-15T18:09:56.365Z,14.97
2017-10-15T18:12:24.813Z,12.67
2017-10-15T18:14:53.251Z,11.73
2017-10-15T18:17:21.710Z,13.40
2017-10-15T18:19:50.149Z,13.13
2017-10-15T18:22:18.528Z,9.10
2017-10-15T18:24:46.985Z,12.83
2017-10-15T18:27:15.488Z,19.73
2017-10-15T18:29:43.915Z,15.40
2017-10-15T18:32:12.389Z,18.70
2017-10-15T18:34:40.816Z,15.13
2017-10-15T18:37:09.268Z,10.53
2017-10-15T18:39:37.666Z,13.90
2017-10-15T18:42:09.838Z,9.80
2017-10-15T18:44:41.370Z,15.00
2017-10-15T18:47:14.130Z,25.60
2017-10-15T18:49:42.569Z,16.40
2017-10-15T18:52:11.015Z,11.00
2017-10-15T18:54:40.460Z,13.53
2017-10-15T18:57:09.094Z,10.77
2017-10-15T18:59:37.720Z,13.93
2017-10-15T19:02:06.413Z,8.90
2017-10-15T19:04:34.805Z,15.77
2017-10-15T19:07:03.481Z,14.67
2017-10-15T19:09:31.934Z,9.33
2017-10-15T19:12:00.461Z,7.80
2017-10-15T19:14:30.341Z,8.47
2017-10-15T19:16:59.065Z,11.90
2017-10-15T19:19:27.478Z,8.43
2017-10-15T19:21:55.987Z,12.60
2017-10-15T19:24:24.672Z,9.80
2017-10-15T19:26:52.994Z,15.30
2017-10-15T19:29:21.390Z,14.80
2017-10-15T19:31:49.765Z,10.70
2017-10-15T19:34:18.296Z,8.20
2017-10-15T19:36:46.701Z,12.97
2017-10-15T19:39:15.137Z,8.20
2017-10-15T19:41:43.529Z,8.03
2017-10-15T19:44:12.129Z,18.63
2017-10-15T19:46:40.651Z,13.67
2017-10-15T19:49:09.380Z,6.77
2017-10-15T19:51:38.172Z,10.10
2017-10-15T19:54:06.502Z,14.17
2017-10-15T19:56:34.920Z,17.93
2017-10-15T19:59:03.409Z,9.87
2017-10-15T20:01:31.844Z,16.63
2017-10-15T20:04:00.499Z,13.57
2017-10-15T20:06:29.306Z,12.10
2017-10-15T20:11:33.220Z,9.23
2017-10-15T20:14:02.179Z,7.53
2017-10-15T20:16:31.016Z,8.00
2017-10-15T20:18:59.556Z,12.43
2017-10-15T20:21:28.040Z,12.43
2017-10-15T20:23:56.470Z,7.80
2017-10-15T20:26:25.112Z,13.53
2017-10-15T20:28:53.678Z,11.30
2017-10-15T20:31:22.059Z,10.80
2017-10-15T20:33:50.449Z,15.03
2017-10-15T20:36:18.848Z,10.83
2017-10-15T20:38:47.380Z,20.17
2017-10-15T20:41:15.735Z,10.47
2017-10-15T20:43:44.106Z,21.47
2017-10-15T20:46:12.485Z,10.40
2017-10-15T20:48:40.844Z,10.40
2017-10-15T20:51:09.356Z,8.20
2017-10-15T20:53:37.769Z,14.57
2017-10-15T20:56:06.163Z,7.30
2017-10-15T20:58:34.527Z,6.20
2017-10-15T21:01:02.951Z,8.83
2017-10-15T21:03:31.312Z,10.90
2017-10-15T21:05:59.740Z,10.73
2017-10-15T21:08:28.275Z,16.70
2017-10-15T21:10:56.697Z,7.83
2017-10-15T21:13:25.102Z,8.00
2017-10-15T21:15:53.593Z,6.73
2017-10-15T21:18:21.945Z,6.47
2017-10-15T21:20:50.326Z,18.40
2017-10-15T21:23:19.617Z,8.70
2017-10-15T21:25:48.041Z,9.07
2017-10-15T21:28:16.437Z,14.70
2017-10-15T21:30:44.899Z,13.60
2017-10-15T21:33:13.293Z,8.70
2017-10-15T21:35:41.714Z,9.03
2017-10-15T21:38:10.062Z,9.20
2017-10-15T21:40:38.490Z,19.43
2017-10-15T21:43:07.017Z,7.00
2017-10-15T21:45:35.426Z,10.70
2017-10-15T21:48:03.890Z,11.83
2017-10-15T21:50:32.210Z,8.83
2017-10-15T21:53:00.685Z,11.80
2017-10-15T21:55:29.025Z,7.53
2017-10-15T21:57:57.521Z,9.50
2017-10-15T22:00:26.140Z,14.23
2017-10-15T22:02:54.549Z,9.27
2017-10-15T22:05:22.927Z,12.80
2017-10-15T22:07:51.289Z,10.17
2017-10-15T22:10:19.667Z,5.30
2017-10-15T22:12:49.224Z,7.77
2017-10-15T22:15:17.611Z,9.63
2017-10-15T22:17:46.045Z,11.87
2017-10-15T22:20:14.369Z,15.67
2017-10-15T22:22:42.746Z,12.10
2017-10-15T22:25:11.088Z,7.80
2017-10-15T22:27:39.397Z,8.73
2017-10-15T22:30:07.858Z,6.33
2017-10-15T22:32:36.301Z,4.53
2017-10-15T22:35:04.674Z,5.97
2017-10-15T22:37:33.067Z,6.67
2017-10-15T22:40:01.598Z,13.10
2017-10-15T22:42:29.965Z,6.03
2017-10-15T22:44:58.344Z,7.97
2017-10-15T22:47:26.778Z,5.23
2017-10-15T22:49:55.104Z,9.33
2017-10-15T22:52:23.469Z,7.10
2017-10-15T22:54:51.840Z,4.00
2017-10-15T22:57:20.452Z,6.20
2017-10-15T22:59:48.796Z,4.37
2017-10-15T23:02:17.108Z,6.17
2017-10-15T23:04:45.492Z,4.53
2017-10-15T23:07:13.869Z,7.87
2017-10-15T23:09:42.215Z,3.77
2017-10-15T23:12:10.536Z,7.17
2017-10-15T23:14:38.863Z,13.33
2017-10-15T23:17:07.298Z,3.93
2017-10-15T23:19:35.590Z,4.10
2017-10-15T23:22:04.287Z,3.07
2017-10-15T23:24:32.925Z,7.50
2017-10-15T23:27:01.445Z,4.90
2017-10-15T23:29:29.783Z,4.47
2017-10-15T23:31:58.191Z,16.53
2017-10-15T23:34:26.526Z,4.23
2017-10-15T23:36:54.851Z,3.90
2017-10-15T23:39:23.224Z,4.37
2017-10-15T23:41:51.573Z,4.57
2017-10-15T23:44:19.884Z,2.60
2017-10-15T23:46:48.246Z,3.10
2017-10-15T23:49:16.569Z,3.30
2017-10-15T23:51:44.936Z,5.50
2017-10-15T23:54:13.255Z,4.33
2017-10-15T23:56:41.796Z,2.90
2017-10-15T23:59:10.370Z,3.00
